createdAt,value
2019-02-12T00:01:11.706Z,4.55
2019-02-12T00:03:39.945Z,4.12
2019-02-12T00:06:08.178Z,4.22
2019-02-12T00:08:36.416Z,4.95
2019-02-12T00:11:04.645Z,5.12
2019-02-12T00:13:32.892Z,6.00
2019-02-12T00:16:01.127Z,5.45
2019-02-12T00:18:30.591Z,5.45
2019-02-12T00:20:58.823Z,5.10
2019-02-12T00:23:27.050Z,5.10
2019-02-12T00:25:55.305Z,5.47
2019-02-12T00:28:23.626Z,5.90
2019-02-12T00:30:51.867Z,5.35
2019-02-12T00:33:20.139Z,4.70
2019-02-12T00:35:49.376Z,5.35
2019-02-12T00:38:19.266Z,6.03
2019-02-12T00:40:47.577Z,6.22
2019-02-12T00:43:15.801Z,5.72
2019-02-12T00:45:44.049Z,6.00
2019-02-12T00:48:12.297Z,5.95
2019-02-12T00:50:40.557Z,7.30
2019-02-12T00:53:08.819Z,6.78
2019-02-12T00:55:37.061Z,8.10
2019-02-12T00:58:06.917Z,6.55
2019-02-12T01:00:36.795Z,8.23
2019-02-12T01:03:05.775Z,6.85
2019-02-12T01:05:34.057Z,7.58
2019-02-12T01:08:02.319Z,6.65
2019-02-12T01:10:30.790Z,6.95
2019-02-12T01:12:59.019Z,6.72
2019-02-12T01:15:27.260Z,6.47
2019-02-12T01:17:55.964Z,6.55
2019-02-12T01:20:25.818Z,6.95
2019-02-12T01:22:54.047Z,6.55
2019-02-12T01:25:22.511Z,7.53
2019-02-12T01:27:51.827Z,7.15
2019-02-12T01:30:20.527Z,7.42
2019-02-12T01:32:49.431Z,7.85
2019-02-12T01:35:17.920Z,7.05
2019-02-12T01:37:46.325Z,8.25
2019-02-12T01:40:16.688Z,7.12
2019-02-12T01:42:44.976Z,6.28
2019-02-12T01:45:14.941Z,7.83
2019-02-12T01:47:45.194Z,7.75
2019-02-12T01:50:13.489Z,7.65
2019-02-12T01:52:41.714Z,6.95
2019-02-12T01:55:10.038Z,7.80
2019-02-12T01:57:38.354Z,8.63
2019-02-12T02:00:12.107Z,7.42
2019-02-12T02:02:40.330Z,7.85
2019-02-12T02:05:09.728Z,7.45
2019-02-12T02:07:38.261Z,8.50
2019-02-12T02:10:09.729Z,8.85
2019-02-12T02:12:39.282Z,8.05
2019-02-12T02:15:09.985Z,8.80
2019-02-12T02:17:38.203Z,8.60
2019-02-12T02:20:09.493Z,9.43
2019-02-12T02:22:37.731Z,9.88
2019-02-12T02:25:09.171Z,9.30
2019-02-12T02:27:37.561Z,10.40
2019-02-12T02:30:10.271Z,9.20
2019-02-12T02:32:38.591Z,9.18
2019-02-12T02:35:06.893Z,8.78
2019-02-12T02:37:35.137Z,9.18
2019-02-12T02:40:05.383Z,9.58
2019-02-12T02:42:33.608Z,9.15
2019-02-12T02:45:02.565Z,9.98
2019-02-12T02:47:32.002Z,9.58
2019-02-12T02:50:00.322Z,9.85
2019-02-12T02:52:29.532Z,9.18
2019-02-12T02:54:58.056Z,8.33
2019-02-12T02:57:27.351Z,9.05
2019-02-12T02:59:56.957Z,8.63
2019-02-12T03:02:25.462Z,9.33
2019-02-12T03:04:53.702Z,9.85
2019-02-12T03:07:21.928Z,9.05
2019-02-12T03:09:51.316Z,8.75
2019-02-12T03:12:19.555Z,8.50
2019-02-12T03:14:47.855Z,9.38
2019-02-12T03:17:16.447Z,9.18
2019-02-12T03:19:44.670Z,10.45
2019-02-12T03:22:12.906Z,9.73
2019-02-12T03:24:41.301Z,8.93
2019-02-12T03:27:09.530Z,10.18
2019-02-12T03:29:37.772Z,9.55
2019-02-12T03:32:07.947Z,9.78
2019-02-12T03:34:36.192Z,8.73
2019-02-12T03:37:04.439Z,9.53
2019-02-12T03:39:32.885Z,11.28
2019-02-12T03:42:02.150Z,11.15
2019-02-12T03:44:30.408Z,11.78
2019-02-12T03:46:58.947Z,11.10
2019-02-12T03:52:13.047Z,11.30
2019-02-12T03:54:38.809Z,11.90
2019-02-12T03:57:07.149Z,11.18
2019-02-12T03:59:36.519Z,11.90
2019-02-12T04:02:04.768Z,12.53
2019-02-12T04:04:33.132Z,12.55
2019-02-12T04:07:01.614Z,13.15
2019-02-12T04:09:30.747Z,13.95
2019-02-12T04:12:01.946Z,13.00
2019-02-12T04:14:30.326Z,14.87
2019-02-12T04:16:58.729Z,14.58
2019-02-12T04:19:28.089Z,13.60
2019-02-12T04:21:56.311Z,15.15
2019-02-12T04:24:24.658Z,14.80
2019-02-12T04:26:54.625Z,14.53
2019-02-12T04:29:23.126Z,16.37
2019-02-12T04:31:51.354Z,15.60
2019-02-12T04:34:20.581Z,15.43
2019-02-12T04:36:48.984Z,17.62
2019-02-12T04:39:18.186Z,16.60
2019-02-12T04:41:47.663Z,16.15
2019-02-12T04:44:16.032Z,16.82
2019-02-12T04:46:44.397Z,17.95
2019-02-12T04:49:18.326Z,16.60
2019-02-12T04:51:46.752Z,16.65
2019-02-12T04:54:16.421Z,16.95
2019-02-12T04:56:44.656Z,16.67
2019-02-12T04:59:13.107Z,17.15
2019-02-12T05:01:41.787Z,17.98
2019-02-12T05:04:10.049Z,16.95
2019-02-12T05:06:38.310Z,17.62
2019-02-12T05:09:15.499Z,18.02
2019-02-12T05:11:46.979Z,18.23
2019-02-12T05:14:15.223Z,19.40
2019-02-12T05:16:44.024Z,18.92
2019-02-12T05:19:12.262Z,19.98
2019-02-12T05:21:40.525Z,19.10
2019-02-12T05:24:09.086Z,19.60
2019-02-12T05:26:37.373Z,20.02
2019-02-12T05:29:05.631Z,21.55
2019-02-12T05:31:33.973Z,20.82
2019-02-12T05:34:02.207Z,21.57
2019-02-12T05:36:30.478Z,18.57
2019-02-12T05:38:58.875Z,19.42
2019-02-12T05:41:27.431Z,19.60
2019-02-12T05:43:55.770Z,20.08
2019-02-12T05:46:26.251Z,18.35
2019-02-12T05:48:54.842Z,30.85
2019-02-12T05:51:23.102Z,53.55
2019-02-12T05:53:53.139Z,26.48
2019-02-12T05:56:21.565Z,19.17
2019-02-12T05:58:49.823Z,18.80
2019-02-12T06:01:19.466Z,17.87
2019-02-12T06:03:48.191Z,17.60
2019-02-12T06:06:17.167Z,16.87
2019-02-12T06:08:47.482Z,17.85
2019-02-12T06:11:16.138Z,18.70
2019-02-12T06:13:45.048Z,18.55
2019-02-12T06:16:13.562Z,19.70
2019-02-12T06:18:42.164Z,19.20
2019-02-12T06:21:10.615Z,18.65
2019-02-12T06:23:40.591Z,20.17
2019-02-12T06:26:08.840Z,19.23
2019-02-12T06:28:37.397Z,20.77
2019-02-12T06:31:07.346Z,20.23
2019-02-12T06:33:35.576Z,19.23
2019-02-12T06:36:04.193Z,17.30
2019-02-12T06:38:35.352Z,19.45
2019-02-12T06:41:05.042Z,18.37
2019-02-12T06:43:33.656Z,17.37
2019-02-12T06:46:03.532Z,17.82
2019-02-12T06:48:31.765Z,19.75
2019-02-12T06:51:00.622Z,19.65
2019-02-12T06:53:32.346Z,19.40
2019-02-12T06:56:03.770Z,18.73
2019-02-12T06:58:32.035Z,19.02
2019-02-12T07:01:01.195Z,17.70
2019-02-12T07:03:32.962Z,17.75
2019-02-12T07:06:09.498Z,18.98
2019-02-12T07:08:57.810Z,18.00
2019-02-12T07:11:43.340Z,17.05
2019-02-12T07:14:26.703Z,17.57
2019-02-12T07:17:15.598Z,17.40
2019-02-12T07:20:09.000Z,16.37
2019-02-12T07:23:02.134Z,17.32
2019-02-12T07:25:55.219Z,17.25
2019-02-12T07:28:46.532Z,15.38
2019-02-12T07:31:43.800Z,16.15
2019-02-12T07:34:36.028Z,16.00
2019-02-12T07:37:22.046Z,17.00
2019-02-12T07:40:03.935Z,15.55
2019-02-12T07:42:41.537Z,16.37
2019-02-12T07:45:29.663Z,18.73
2019-02-12T07:48:10.119Z,17.25
2019-02-12T07:50:45.460Z,15.88
2019-02-12T07:53:31.337Z,15.23
2019-02-12T07:56:03.682Z,16.37
2019-02-12T07:58:50.554Z,15.10
2019-02-12T08:01:40.449Z,15.43
2019-02-12T08:04:22.859Z,15.72
2019-02-12T08:07:13.278Z,15.72
2019-02-12T08:10:11.391Z,16.42
2019-02-12T08:12:59.567Z,15.93
2019-02-12T08:15:47.013Z,16.67
2019-02-12T08:18:36.085Z,17.23
2019-02-12T08:21:22.679Z,17.45
2019-02-12T08:24:12.675Z,17.85
2019-02-12T08:26:52.522Z,17.17
2019-02-12T08:29:46.734Z,16.17
2019-02-12T08:32:23.338Z,16.37
2019-02-12T08:35:14.819Z,18.10
2019-02-12T08:37:49.787Z,18.60
2019-02-12T08:40:34.964Z,16.57
2019-02-12T08:43:12.422Z,17.17
2019-02-12T08:46:03.652Z,17.35
2019-02-12T08:48:38.676Z,17.98
2019-02-12T08:51:23.967Z,18.60
2019-02-12T08:54:10.741Z,17.40
2019-02-12T08:57:11.434Z,17.20
2019-02-12T08:59:48.570Z,17.27
2019-02-12T09:02:36.847Z,15.98
2019-02-12T09:05:20.113Z,17.62
2019-02-12T09:07:51.901Z,15.55
2019-02-12T09:10:41.559Z,15.68
2019-02-12T09:13:13.530Z,16.37
2019-02-12T09:18:39.410Z,14.50
2019-02-12T09:21:12.286Z,16.40
2019-02-12T09:24:04.334Z,15.80
2019-02-12T09:26:38.681Z,15.23
2019-02-12T09:29:29.797Z,15.50
2019-02-12T09:32:08.008Z,15.70
2019-02-12T09:34:42.673Z,15.05
2019-02-12T09:37:35.042Z,15.25
2019-02-12T09:40:28.391Z,15.50
2019-02-12T09:43:22.214Z,15.63
2019-02-12T09:46:05.238Z,17.00
2019-02-12T09:48:43.531Z,16.40
2019-02-12T09:51:24.699Z,17.17
2019-02-12T09:54:13.484Z,16.60
2019-02-12T09:57:03.491Z,17.55
2019-02-12T09:59:35.070Z,17.87
2019-02-12T10:02:35.762Z,17.12
2019-02-12T10:05:26.959Z,17.05
2019-02-12T10:08:26.905Z,17.80
2019-02-12T10:11:13.808Z,17.45
2019-02-12T10:14:00.080Z,17.37
2019-02-12T10:16:40.625Z,18.52
2019-02-12T10:19:20.920Z,19.35
2019-02-12T10:22:01.402Z,19.52
2019-02-12T10:24:51.130Z,19.15
2019-02-12T10:27:34.479Z,19.73
2019-02-12T10:30:24.018Z,20.65
2019-02-12T10:32:52.463Z,19.62
2019-02-12T10:35:20.879Z,19.73
2019-02-12T10:37:49.119Z,21.00
2019-02-12T10:40:17.705Z,20.50
2019-02-12T10:42:46.047Z,19.40
2019-02-12T10:45:14.269Z,20.77
2019-02-12T10:47:42.850Z,17.52
2019-02-12T10:50:11.500Z,16.65
2019-02-12T10:52:40.425Z,17.57
2019-02-12T10:55:08.994Z,18.75
2019-02-12T10:57:37.264Z,15.80
2019-02-12T11:00:19.262Z,16.37
2019-02-12T11:02:47.490Z,15.20
2019-02-12T11:05:15.741Z,16.10
2019-02-12T11:07:44.500Z,16.45
2019-02-12T11:10:12.841Z,15.35
2019-02-12T11:12:41.082Z,14.95
2019-02-12T11:15:10.456Z,14.83
2019-02-12T11:17:38.708Z,15.65
2019-02-12T11:20:13.691Z,15.00
2019-02-12T11:22:42.008Z,13.00
2019-02-12T11:25:10.227Z,14.75
2019-02-12T11:27:39.563Z,13.13
2019-02-12T11:30:11.398Z,15.32
2019-02-12T11:32:39.669Z,14.93
2019-02-12T11:35:10.191Z,15.95
2019-02-12T11:37:39.507Z,12.85
2019-02-12T11:40:13.453Z,13.48
2019-02-12T11:42:42.409Z,13.40
2019-02-12T11:45:14.938Z,14.05
2019-02-12T11:47:43.571Z,13.60
2019-02-12T11:50:11.810Z,13.25
2019-02-12T11:52:40.050Z,13.48
2019-02-12T11:55:11.277Z,15.23
2019-02-12T11:57:39.538Z,13.32
2019-02-12T12:00:14.880Z,13.20
2019-02-12T12:02:43.113Z,14.33
2019-02-12T12:05:11.355Z,13.35
2019-02-12T12:07:39.819Z,14.33
2019-02-12T12:10:12.159Z,13.05
2019-02-12T12:12:40.506Z,12.82
2019-02-12T12:15:13.735Z,14.18
2019-02-12T12:17:42.031Z,13.43
2019-02-12T12:20:12.822Z,12.78
2019-02-12T12:22:55.403Z,13.35
2019-02-12T12:25:24.047Z,13.75
2019-02-12T12:27:52.653Z,12.47
2019-02-12T12:30:22.119Z,11.28
2019-02-12T12:32:50.433Z,13.25
2019-02-12T12:35:18.835Z,12.15
2019-02-12T12:37:47.079Z,10.35
2019-02-12T12:40:16.650Z,12.43
2019-02-12T12:42:45.172Z,10.75
2019-02-12T12:45:14.772Z,12.33
2019-02-12T12:47:43.049Z,11.20
2019-02-12T12:50:14.945Z,11.97
2019-02-12T12:52:43.174Z,12.43
2019-02-12T12:55:11.511Z,11.00
2019-02-12T12:57:41.996Z,11.53
2019-02-12T13:00:16.719Z,11.12
2019-02-12T13:02:46.970Z,11.70
2019-02-12T13:05:15.202Z,12.10
2019-02-12T13:07:46.274Z,10.03
2019-02-12T13:10:16.371Z,8.10
2019-02-12T13:12:45.656Z,8.63
2019-02-12T13:15:15.338Z,9.70
2019-02-12T13:17:43.578Z,8.68
2019-02-12T13:20:17.387Z,9.00
2019-02-12T13:22:48.011Z,10.05
2019-02-12T13:25:16.248Z,8.90
2019-02-12T13:27:46.250Z,10.80
2019-02-12T13:30:16.434Z,10.00
2019-02-12T13:32:44.671Z,9.68
2019-02-12T13:35:13.165Z,9.73
2019-02-12T13:37:42.217Z,11.00
2019-02-12T13:40:11.688Z,9.38
2019-02-12T13:42:41.050Z,11.85
2019-02-12T13:45:13.550Z,9.50
2019-02-12T13:47:42.289Z,9.73
2019-02-12T13:50:11.950Z,9.80
2019-02-12T13:52:42.407Z,10.20
2019-02-12T13:55:17.012Z,10.32
2019-02-12T13:57:51.512Z,9.73
2019-02-12T14:00:23.216Z,10.30
2019-02-12T14:02:55.173Z,10.95
2019-02-12T14:05:29.558Z,9.28
2019-02-12T14:10:27.548Z,9.13
2019-02-12T14:12:56.293Z,9.70
2019-02-12T14:15:28.481Z,10.68
2019-02-12T14:17:56.728Z,9.90
2019-02-12T14:20:25.371Z,12.98
2019-02-12T14:22:55.457Z,12.15
2019-02-12T14:25:25.700Z,12.13
2019-02-12T14:27:54.274Z,11.28
2019-02-12T14:30:26.311Z,11.75
2019-02-12T14:35:22.537Z,10.43
2019-02-12T14:37:55.834Z,13.38
2019-02-12T14:40:25.752Z,11.93
2019-02-12T14:42:57.732Z,12.50
2019-02-12T14:47:54.305Z,10.63
2019-02-12T14:50:23.255Z,12.43
2019-02-12T14:52:51.527Z,12.30
2019-02-12T14:55:19.781Z,11.45
2019-02-12T14:57:48.666Z,12.90
2019-02-12T15:00:20.801Z,11.05
2019-02-12T15:05:16.936Z,12.35
2019-02-12T15:07:46.381Z,11.50
2019-02-12T15:10:16.770Z,12.30
2019-02-12T15:12:45.685Z,13.25
2019-02-12T15:15:14.008Z,12.80
2019-02-12T15:17:42.311Z,12.35
2019-02-12T15:20:11.921Z,11.93
2019-02-12T15:22:40.260Z,11.78
2019-02-12T15:25:12.354Z,11.40
2019-02-12T15:30:14.373Z,14.30
2019-02-12T15:32:44.331Z,12.35
2019-02-12T15:35:13.450Z,13.20
2019-02-12T15:37:42.756Z,11.95
2019-02-12T15:40:19.646Z,12.18
2019-02-12T15:42:48.650Z,11.95
2019-02-12T15:45:23.143Z,12.15
2019-02-12T15:47:51.957Z,11.85
2019-02-12T15:50:20.316Z,11.45
2019-02-12T15:52:49.073Z,10.78
2019-02-12T15:55:17.301Z,14.65
2019-02-12T15:57:46.836Z,11.70
2019-02-12T16:00:20.001Z,12.23
2019-02-12T16:02:48.465Z,11.55
2019-02-12T16:05:17.307Z,11.68
2019-02-12T16:07:47.451Z,11.70
2019-02-12T16:10:21.121Z,11.00
2019-02-12T16:12:51.331Z,10.40
2019-02-12T16:15:22.377Z,11.05
2019-02-12T16:17:51.142Z,11.03
2019-02-12T16:20:19.495Z,11.03
2019-02-12T16:22:47.749Z,10.10
2019-02-12T16:25:17.657Z,10.53
2019-02-12T16:27:45.958Z,11.95
2019-02-12T16:30:20.712Z,10.30
2019-02-12T16:32:49.113Z,10.00
2019-02-12T16:35:18.646Z,10.15
2019-02-12T16:37:48.004Z,10.88
2019-02-12T16:40:18.572Z,11.20
2019-02-12T16:42:46.809Z,10.15
2019-02-12T16:45:21.302Z,10.82
2019-02-12T16:47:50.249Z,10.32
2019-02-12T16:50:18.551Z,10.25
2019-02-12T16:52:48.443Z,11.20
2019-02-12T16:55:17.305Z,9.85
2019-02-12T16:57:46.460Z,10.58
2019-02-12T17:00:17.262Z,12.45
2019-02-12T17:02:46.696Z,13.20
2019-02-12T17:05:15.661Z,12.13
2019-02-12T17:07:45.021Z,11.38
2019-02-12T17:10:14.234Z,12.13
2019-02-12T17:12:42.683Z,12.47
2019-02-12T17:15:12.107Z,13.20
2019-02-12T17:17:40.549Z,12.45
2019-02-12T17:20:21.270Z,12.70
2019-02-12T17:22:49.950Z,11.93
2019-02-12T17:25:18.210Z,17.15
2019-02-12T17:27:48.026Z,13.18
2019-02-12T17:30:23.387Z,11.75
2019-02-12T17:32:52.412Z,12.33
2019-02-12T17:35:20.646Z,13.28
2019-02-12T17:37:49.762Z,14.63
2019-02-12T17:40:19.580Z,13.45
2019-02-12T17:42:47.891Z,20.32
2019-02-12T17:45:21.982Z,13.85
2019-02-12T17:47:50.281Z,13.30
2019-02-12T17:50:18.680Z,12.68
2019-02-12T17:52:54.714Z,13.78
2019-02-12T17:55:22.961Z,14.33
2019-02-12T17:57:51.253Z,13.10
2019-02-12T18:00:29.025Z,13.00
2019-02-12T18:02:57.373Z,12.58
2019-02-12T18:05:27.402Z,13.90
2019-02-12T18:07:55.842Z,14.28
2019-02-12T18:10:24.082Z,14.13
2019-02-12T18:12:52.334Z,13.50
2019-02-12T18:15:21.782Z,14.38
2019-02-12T18:17:50.095Z,14.40
2019-02-12T18:20:26.073Z,15.93
2019-02-12T18:22:49.133Z,14.23
2019-02-12T18:25:17.410Z,14.68
2019-02-12T18:27:45.664Z,16.30
2019-02-12T18:30:16.274Z,13.85
2019-02-12T18:32:44.568Z,13.93
2019-02-12T18:35:14.044Z,14.18
2019-02-12T18:37:42.825Z,14.68
2019-02-12T18:40:15.442Z,13.32
2019-02-12T18:42:44.410Z,14.63
2019-02-12T18:45:19.328Z,15.50
2019-02-12T18:47:47.663Z,15.90
2019-02-12T18:50:18.031Z,15.83
2019-02-12T18:52:47.808Z,16.25
2019-02-12T18:55:16.751Z,16.93
2019-02-12T18:57:45.718Z,15.95
2019-02-12T19:00:21.712Z,17.57
2019-02-12T19:02:53.215Z,13.80
2019-02-12T19:05:22.730Z,14.63
2019-02-12T19:07:51.103Z,15.88
2019-02-12T19:10:19.728Z,16.25
2019-02-12T19:12:48.672Z,17.20
2019-02-12T19:15:21.272Z,15.00
2019-02-12T19:18:07.677Z,17.85
2019-02-12T19:20:36.199Z,16.93
2019-02-12T19:23:04.462Z,14.98
2019-02-12T19:25:32.719Z,16.42
2019-02-12T19:28:01.311Z,16.32
2019-02-12T19:30:29.578Z,17.55
2019-02-12T19:32:57.991Z,17.55
2019-02-12T19:35:26.649Z,15.75
2019-02-12T19:37:54.915Z,16.05
2019-02-12T19:40:23.164Z,16.07
2019-02-12T19:42:51.902Z,16.77
2019-02-12T19:45:20.452Z,15.55
2019-02-12T19:47:49.592Z,15.20
2019-02-12T19:50:18.266Z,14.53
2019-02-12T19:52:46.660Z,15.38
2019-02-12T19:55:15.466Z,16.75
2019-02-12T19:57:46.530Z,15.83
2019-02-12T20:00:19.996Z,15.23
2019-02-12T20:02:50.603Z,15.78
2019-02-12T20:05:19.207Z,15.35
2019-02-12T20:07:47.520Z,17.82
2019-02-12T20:10:17.517Z,15.85
2019-02-12T20:12:45.872Z,16.70
2019-02-12T20:15:45.201Z,15.35
2019-02-12T20:18:13.837Z,17.52
2019-02-12T20:20:42.443Z,17.30
2019-02-12T20:23:11.571Z,20.25
2019-02-12T20:25:39.956Z,17.57
2019-02-12T20:28:08.352Z,17.10
2019-02-12T20:30:37.171Z,15.85
2019-02-12T20:33:05.530Z,16.25
2019-02-12T20:35:36.378Z,17.52
2019-02-12T20:38:05.178Z,16.17
2019-02-12T20:40:34.874Z,18.40
2019-02-12T20:43:03.224Z,16.67
2019-02-12T20:45:31.767Z,16.87
2019-02-12T20:48:00.107Z,16.52
2019-02-12T20:50:28.456Z,17.30
2019-02-12T20:52:57.830Z,17.75
2019-02-12T20:55:26.530Z,18.40
2019-02-12T20:57:54.961Z,17.12
2019-02-12T21:00:24.216Z,16.67
2019-02-12T21:02:52.505Z,17.12
2019-02-12T21:05:20.784Z,17.87
2019-02-12T21:07:49.335Z,16.77
2019-02-12T21:10:19.114Z,17.65
2019-02-12T21:12:47.508Z,16.55
2019-02-12T21:15:21.266Z,17.37
2019-02-12T21:17:50.018Z,16.27
2019-02-12T21:20:18.291Z,19.50
2019-02-12T21:22:46.686Z,18.15
2019-02-12T21:25:15.377Z,18.90
2019-02-12T21:27:43.748Z,17.32
2019-02-12T21:30:21.229Z,16.73
2019-02-12T21:32:49.514Z,16.65
2019-02-12T21:35:17.809Z,16.02
2019-02-12T21:37:46.349Z,16.95
2019-02-12T21:40:22.534Z,17.52
2019-02-12T21:42:51.220Z,16.67
2019-02-12T21:45:19.683Z,16.12
2019-02-12T21:47:47.910Z,16.35
2019-02-12T21:50:18.234Z,16.87
2019-02-12T21:52:46.637Z,15.63
2019-02-12T21:55:18.679Z,16.67
2019-02-12T22:00:19.657Z,15.43
2019-02-12T22:02:49.430Z,15.55
2019-02-12T22:05:18.031Z,15.88
2019-02-12T22:07:46.271Z,16.95
2019-02-12T22:10:34.719Z,14.98
2019-02-12T22:13:02.957Z,16.25
2019-02-12T22:15:31.210Z,15.83
2019-02-12T22:17:59.638Z,17.90
2019-02-12T22:20:29.157Z,15.88
2019-02-12T22:22:57.389Z,16.97
2019-02-12T22:25:26.544Z,15.68
2019-02-12T22:27:55.637Z,15.88
2019-02-12T22:30:25.122Z,17.05
2019-02-12T22:32:59.675Z,16.10
2019-02-12T22:35:27.966Z,15.10
2019-02-12T22:37:56.211Z,17.98
2019-02-12T22:40:25.095Z,17.20
2019-02-12T22:42:53.545Z,16.35
2019-02-12T22:45:23.319Z,20.43
2019-02-12T22:47:51.775Z,17.80
2019-02-12T22:50:20.181Z,16.50
2019-02-12T22:52:48.610Z,15.95
2019-02-12T22:55:17.350Z,15.60
2019-02-12T22:57:49.196Z,17.37
2019-02-12T23:00:49.704Z,16.27
2019-02-12T23:03:18.907Z,15.60
2019-02-12T23:05:47.176Z,15.63
2019-02-12T23:08:15.753Z,15.98
2019-02-12T23:10:44.480Z,16.52
2019-02-12T23:13:12.710Z,17.15
2019-02-12T23:15:40.960Z,16.73
2019-02-12T23:18:10.135Z,16.65
2019-02-12T23:20:38.389Z,16.87
2019-02-12T23:23:06.690Z,16.93
2019-02-12T23:25:37.203Z,16.97
2019-02-12T23:28:05.812Z,15.35
2019-02-12T23:30:34.502Z,15.32
2019-02-12T23:33:02.925Z,16.37
2019-02-12T23:35:31.736Z,16.05
2019-02-12T23:38:00.980Z,15.98
2019-02-12T23:40:32.350Z,16.65
2019-02-12T23:43:00.757Z,15.32
2019-02-12T23:45:29.430Z,15.20
2019-02-12T23:47:58.094Z,16.62
2019-02-12T23:50:27.079Z,16.65
2019-02-12T23:52:55.350Z,16.02
2019-02-12T23:55:24.226Z,16.37
2019-02-12T23:57:52.558Z,15.95
